createdAt,value
2022-08-17T00:01:29.967Z,21.97
2022-08-17T00:04:01.409Z,22.50
2022-08-17T00:06:31.896Z,21.50
2022-08-17T00:09:03.816Z,24.10
2022-08-17T00:11:39.576Z,22.58
2022-08-17T00:14:14.209Z,23.27
2022-08-17T00:16:56.436Z,21.80
2022-08-17T00:19:22.854Z,22.47
2022-08-17T00:22:29.402Z,21.80
2022-08-17T00:24:28.223Z,20.45
2022-08-17T00:26:58.281Z,22.58
2022-08-17T00:29:28.141Z,19.80
2022-08-17T00:31:57.920Z,22.43
2022-08-17T00:34:27.907Z,20.50
2022-08-17T00:36:57.772Z,22.10
2022-08-17T00:39:27.597Z,20.83
2022-08-17T00:41:57.489Z,22.33
2022-08-17T00:44:30.292Z,21.67
2022-08-17T00:46:58.919Z,21.10
2022-08-17T00:49:29.557Z,21.80
2022-08-17T00:52:04.017Z,21.53
2022-08-17T00:57:12.654Z,21.42
2022-08-17T00:59:45.985Z,23.47
2022-08-17T01:02:19.986Z,22.17
2022-08-17T01:04:52.920Z,21.70
2022-08-17T01:07:27.171Z,23.30
2022-08-17T01:09:57.022Z,23.07
2022-08-17T01:12:28.454Z,20.88
2022-08-17T01:14:58.220Z,22.07
2022-08-17T01:17:28.473Z,21.45
2022-08-17T01:19:58.326Z,22.27
2022-08-17T01:22:28.442Z,22.07
2022-08-17T01:25:03.221Z,20.83
2022-08-17T01:27:33.425Z,23.27
2022-08-17T01:30:06.492Z,23.23
2022-08-17T01:32:37.969Z,22.20
2022-08-17T01:35:09.189Z,18.90
2022-08-17T01:37:42.289Z,20.97
2022-08-17T01:40:38.996Z,18.10
2022-08-17T01:43:14.818Z,21.65
2022-08-17T01:46:03.893Z,21.17
2022-08-17T01:48:21.851Z,17.53
2022-08-17T01:50:53.175Z,19.53
2022-08-17T01:53:25.998Z,18.97
2022-08-17T01:55:58.831Z,21.17
2022-08-17T01:58:28.554Z,20.48
2022-08-17T02:01:00.905Z,21.35
2022-08-17T02:03:31.823Z,19.93
2022-08-17T02:06:02.418Z,20.47
2022-08-17T02:08:37.319Z,21.17
2022-08-17T02:11:11.238Z,22.00
2022-08-17T02:13:39.992Z,20.87
2022-08-17T02:16:11.364Z,21.06
2022-08-17T02:18:41.347Z,21.00
2022-08-17T02:21:11.762Z,22.73
2022-08-17T02:23:44.720Z,21.43
2022-08-17T02:26:25.814Z,22.35
2022-08-17T02:28:46.396Z,23.83
2022-08-17T02:31:16.233Z,23.00
2022-08-17T02:33:46.014Z,25.10
2022-08-17T02:36:17.400Z,24.50
2022-08-17T02:38:47.656Z,24.77
2022-08-17T02:41:17.499Z,24.50
2022-08-17T02:43:47.282Z,21.30
2022-08-17T02:46:17.034Z,25.20
2022-08-17T02:48:47.203Z,22.97
2022-08-17T02:51:17.750Z,23.07
2022-08-17T02:53:47.615Z,23.00
2022-08-17T02:56:17.960Z,24.40
2022-08-17T02:58:47.454Z,23.50
2022-08-17T03:01:17.930Z,23.42
2022-08-17T03:03:47.895Z,25.55
2022-08-17T03:06:17.753Z,25.08
2022-08-17T03:08:47.599Z,23.80
2022-08-17T03:11:17.689Z,25.25
2022-08-17T03:13:47.727Z,24.20
2022-08-17T03:16:17.548Z,24.15
2022-08-17T03:18:47.343Z,26.83
2022-08-17T03:21:17.424Z,24.23
2022-08-17T03:23:47.203Z,25.03
2022-08-17T03:26:18.676Z,23.33
2022-08-17T03:28:49.144Z,24.17
2022-08-17T03:31:19.059Z,23.57
2022-08-17T03:33:49.198Z,23.00
2022-08-17T03:36:18.981Z,21.68
2022-08-17T03:38:48.795Z,21.57
2022-08-17T03:41:20.244Z,23.50
2022-08-17T03:43:50.334Z,21.55
2022-08-17T03:46:37.299Z,21.53
2022-08-17T03:49:26.481Z,23.83
2022-08-17T03:52:15.374Z,25.37
2022-08-17T03:55:03.957Z,25.00
2022-08-17T03:57:34.031Z,26.83
2022-08-17T04:00:06.041Z,25.45
2022-08-17T04:02:37.598Z,26.30
2022-08-17T04:05:09.321Z,25.88
2022-08-17T04:07:39.379Z,25.37
2022-08-17T04:10:11.595Z,25.15
2022-08-17T04:12:48.329Z,25.50
2022-08-17T04:15:18.424Z,24.92
2022-08-17T04:17:48.979Z,24.57
2022-08-17T04:20:21.310Z,23.02
2022-08-17T04:23:02.808Z,23.17
2022-08-17T04:25:36.380Z,25.47
2022-08-17T04:28:15.633Z,23.98
2022-08-17T04:30:40.591Z,25.10
2022-08-17T04:33:13.910Z,26.65
2022-08-17T04:35:46.229Z,26.55
2022-08-17T04:38:19.057Z,25.27
2022-08-17T04:41:06.876Z,26.67
2022-08-17T04:43:37.971Z,25.30
2022-08-17T04:46:12.671Z,25.72
2022-08-17T04:48:44.833Z,24.00
2022-08-17T04:51:29.969Z,24.77
2022-08-17T04:54:11.980Z,24.25
2022-08-17T04:56:42.523Z,25.75
2022-08-17T04:59:16.970Z,24.37
2022-08-17T05:01:49.378Z,22.43
2022-08-17T05:04:34.616Z,21.45
2022-08-17T05:06:55.593Z,24.05
2022-08-17T05:09:25.365Z,20.97
2022-08-17T05:11:56.278Z,20.50
2022-08-17T05:14:33.170Z,19.85
2022-08-17T05:16:57.613Z,21.30
2022-08-17T05:19:27.468Z,23.17
2022-08-17T05:21:57.248Z,22.50
2022-08-17T05:24:42.478Z,21.65
2022-08-17T05:27:02.606Z,21.27
2022-08-17T05:29:35.108Z,21.23
2022-08-17T05:32:38.526Z,20.43
2022-08-17T05:34:41.213Z,21.57
2022-08-17T05:37:11.006Z,21.63
2022-08-17T05:39:40.571Z,22.00
2022-08-17T05:42:11.593Z,21.38
2022-08-17T05:44:41.361Z,22.33
2022-08-17T05:47:11.219Z,21.73
2022-08-17T05:49:40.800Z,21.30
2022-08-17T05:52:36.873Z,22.10
2022-08-17T05:55:26.075Z,21.43
2022-08-17T05:57:59.834Z,21.65
2022-08-17T06:00:42.103Z,22.25
2022-08-17T06:03:46.354Z,21.43
2022-08-17T06:06:21.887Z,21.13
2022-08-17T06:09:12.747Z,21.13
2022-08-17T06:11:53.518Z,21.93
2022-08-17T06:14:29.183Z,22.00
2022-08-17T06:17:01.866Z,20.67
2022-08-17T06:19:48.645Z,19.40
2022-08-17T06:22:21.811Z,19.82
2022-08-17T06:25:18.629Z,19.07
2022-08-17T06:27:54.374Z,19.47
2022-08-17T06:30:27.439Z,18.13
2022-08-17T06:33:01.271Z,19.60
2022-08-17T06:35:43.711Z,19.43
2022-08-17T06:38:34.146Z,19.70
2022-08-17T06:41:09.345Z,20.53
2022-08-17T06:43:48.215Z,19.17
2022-08-17T06:46:41.727Z,18.53
2022-08-17T06:49:29.435Z,19.50
2022-08-17T06:52:42.107Z,19.03
2022-08-17T06:55:09.362Z,17.90
2022-08-17T06:57:46.350Z,17.57
2022-08-17T07:00:19.210Z,17.50
2022-08-17T07:03:00.619Z,19.05
2022-08-17T07:05:36.694Z,18.23
2022-08-17T07:08:29.153Z,18.60
2022-08-17T07:11:00.853Z,17.83
2022-08-17T07:13:51.327Z,18.67
2022-08-17T07:16:27.388Z,19.57
2022-08-17T07:18:59.492Z,16.70
2022-08-17T07:21:40.671Z,18.65
2022-08-17T07:24:30.832Z,18.43
2022-08-17T07:27:15.528Z,18.07
2022-08-17T07:29:53.993Z,20.40
2022-08-17T07:32:26.539Z,18.77
2022-08-17T07:35:06.551Z,19.67
2022-08-17T07:37:39.059Z,19.27
2022-08-17T07:40:19.941Z,19.75
2022-08-17T07:43:11.492Z,18.57
2022-08-17T07:46:13.876Z,17.97
2022-08-17T07:48:46.416Z,18.95
2022-08-17T07:51:22.259Z,17.45
2022-08-17T07:53:52.223Z,18.30
2022-08-17T07:56:40.329Z,18.03
2022-08-17T07:59:20.470Z,19.40
2022-08-17T08:02:00.597Z,17.77
2022-08-17T08:04:59.741Z,18.60
2022-08-17T08:07:21.568Z,18.05
2022-08-17T08:10:13.804Z,18.83
2022-08-17T08:12:46.647Z,19.03
2022-08-17T08:15:22.518Z,21.00
2022-08-17T08:18:01.008Z,20.20
2022-08-17T08:20:51.556Z,20.37
2022-08-17T08:23:42.645Z,18.73
2022-08-17T08:26:26.311Z,18.85
2022-08-17T08:29:08.320Z,18.87
2022-08-17T08:32:16.279Z,19.45
2022-08-17T08:35:01.792Z,19.40
2022-08-17T08:37:40.513Z,19.00
2022-08-17T08:40:13.899Z,20.97
2022-08-17T08:43:22.208Z,23.23
2022-08-17T08:45:57.710Z,28.97
2022-08-17T08:48:53.215Z,28.83
2022-08-17T08:51:41.848Z,32.23
2022-08-17T08:54:32.687Z,32.90
2022-08-17T08:57:32.890Z,36.40
2022-08-17T09:00:19.294Z,37.42
2022-08-17T09:03:04.079Z,38.80
2022-08-17T09:05:45.541Z,43.23
2022-08-17T09:08:38.065Z,43.38
2022-08-17T09:12:02.393Z,45.00
2022-08-17T09:14:43.256Z,45.97
2022-08-17T09:17:21.970Z,45.07
2022-08-17T09:20:00.404Z,47.07
2022-08-17T09:22:38.839Z,46.93
2022-08-17T09:25:11.853Z,46.97
2022-08-17T09:27:53.175Z,41.50
2022-08-17T09:30:23.698Z,42.57
2022-08-17T09:33:02.818Z,41.20
2022-08-17T09:35:37.036Z,38.40
2022-08-17T09:38:32.523Z,38.03
2022-08-17T09:41:13.384Z,32.57
2022-08-17T09:43:46.210Z,31.67
2022-08-17T09:46:27.886Z,30.17
2022-08-17T09:49:09.807Z,30.67
2022-08-17T09:51:50.927Z,29.37
2022-08-17T09:54:41.767Z,28.85
2022-08-17T09:57:28.638Z,27.77
2022-08-17T09:59:58.128Z,28.03
2022-08-17T10:02:40.347Z,24.53
2022-08-17T10:05:21.763Z,27.23
2022-08-17T10:08:07.951Z,27.57
2022-08-17T10:10:52.492Z,25.82
2022-08-17T10:13:29.880Z,27.87
2022-08-17T10:16:04.245Z,26.27
2022-08-17T10:18:37.720Z,26.40
2022-08-17T10:21:28.019Z,26.27
2022-08-17T10:24:41.142Z,26.37
2022-08-17T10:27:15.830Z,26.90
2022-08-17T10:29:51.201Z,27.57
2022-08-17T10:32:41.976Z,27.87
2022-08-17T10:35:17.069Z,26.75
2022-08-17T10:38:06.533Z,26.70
2022-08-17T10:40:57.413Z,27.00
2022-08-17T10:44:36.630Z,26.93
2022-08-17T10:46:54.122Z,27.85
2022-08-17T10:49:33.850Z,28.70
2022-08-17T10:52:12.257Z,27.00
2022-08-17T10:54:47.755Z,26.33
2022-08-17T10:57:32.182Z,32.33
2022-08-17T11:00:27.611Z,29.42
2022-08-17T11:02:58.577Z,29.80
2022-08-17T11:05:50.227Z,27.73
2022-08-17T11:08:48.537Z,31.85
2022-08-17T11:11:34.560Z,32.43
2022-08-17T11:14:23.977Z,31.12
2022-08-17T11:17:13.005Z,34.20
2022-08-17T11:20:05.084Z,34.53
2022-08-17T11:22:40.785Z,35.55
2022-08-17T11:25:18.745Z,33.47
2022-08-17T11:27:53.682Z,35.08
2022-08-17T11:30:43.527Z,32.93
2022-08-17T11:33:36.802Z,33.53
2022-08-17T11:36:31.333Z,33.60
2022-08-17T11:39:10.079Z,33.57
2022-08-17T11:41:49.833Z,33.00
2022-08-17T11:44:31.159Z,28.85
2022-08-17T11:47:38.094Z,32.30
2022-08-17T11:50:30.133Z,30.80
2022-08-17T11:53:01.207Z,30.82
2022-08-17T11:55:39.538Z,30.20
2022-08-17T11:58:31.653Z,28.87
2022-08-17T12:01:03.875Z,29.37
2022-08-17T12:03:38.400Z,30.30
2022-08-17T12:06:30.399Z,28.10
2022-08-17T12:09:13.571Z,27.70
2022-08-17T12:12:13.263Z,29.97
2022-08-17T12:17:09.933Z,26.52
2022-08-17T12:19:43.106Z,27.07
2022-08-17T12:22:29.347Z,25.32
2022-08-17T12:25:04.886Z,26.53
2022-08-17T12:27:46.160Z,24.47
2022-08-17T12:30:16.158Z,26.67
2022-08-17T12:32:48.196Z,25.85
2022-08-17T12:35:34.223Z,26.45
2022-08-17T12:38:26.888Z,24.40
2022-08-17T12:40:39.233Z,27.90
2022-08-17T12:43:12.059Z,26.13
2022-08-17T12:45:41.982Z,27.53
2022-08-17T12:48:14.781Z,25.70
2022-08-17T12:50:47.072Z,25.77
2022-08-17T12:53:20.157Z,25.77
2022-08-17T12:55:51.065Z,24.63
2022-08-17T12:58:24.920Z,24.77
2022-08-17T13:01:09.480Z,25.25
2022-08-17T13:03:42.733Z,25.13
2022-08-17T13:06:14.954Z,24.67
2022-08-17T13:08:47.941Z,23.67
2022-08-17T13:11:24.582Z,21.67
2022-08-17T13:13:56.582Z,25.93
2022-08-17T13:16:33.343Z,23.13
2022-08-17T13:19:20.092Z,24.47
2022-08-17T13:21:54.737Z,25.03
2022-08-17T13:24:38.027Z,24.00
2022-08-17T13:27:10.001Z,26.30
2022-08-17T13:29:44.090Z,24.27
2022-08-17T13:32:23.045Z,25.90
2022-08-17T13:35:14.324Z,27.07
2022-08-17T13:37:36.268Z,27.58
2022-08-17T13:40:14.898Z,26.62
2022-08-17T13:42:52.754Z,24.77
2022-08-17T13:45:38.893Z,27.87
2022-08-17T13:48:24.669Z,28.34
2022-08-17T13:51:00.429Z,28.93
2022-08-17T13:53:36.296Z,32.20
2022-08-17T13:56:37.249Z,30.17
2022-08-17T13:58:55.187Z,31.85
2022-08-17T14:01:30.773Z,33.27
2022-08-17T14:04:03.552Z,30.25
2022-08-17T14:06:53.209Z,31.63
2022-08-17T14:09:07.558Z,33.98
2022-08-17T14:11:38.081Z,30.60
2022-08-17T14:14:10.000Z,32.05
2022-08-17T14:16:42.181Z,32.30
2022-08-17T14:19:14.009Z,31.57
2022-08-17T14:21:46.676Z,31.67
2022-08-17T14:24:24.921Z,31.93
2022-08-17T14:26:55.687Z,31.83
2022-08-17T14:29:27.876Z,31.63
2022-08-17T14:31:59.598Z,30.87
2022-08-17T14:34:29.256Z,31.57
2022-08-17T14:36:59.046Z,33.37
2022-08-17T14:39:28.805Z,32.35
2022-08-17T14:41:58.614Z,32.13
2022-08-17T14:44:28.212Z,33.10
2022-08-17T14:46:58.072Z,29.20
2022-08-17T14:49:27.976Z,29.60
2022-08-17T14:51:57.549Z,30.80
2022-08-17T14:54:33.581Z,30.48
2022-08-17T14:57:02.847Z,29.10
2022-08-17T14:59:31.677Z,29.33
2022-08-17T15:02:02.571Z,30.70
2022-08-17T15:04:32.633Z,29.15
2022-08-17T15:07:03.610Z,28.90
2022-08-17T15:09:35.763Z,30.53
2022-08-17T15:12:06.995Z,29.80
2022-08-17T15:14:37.642Z,27.40
2022-08-17T15:17:07.435Z,30.03
2022-08-17T15:19:37.208Z,29.13
2022-08-17T15:22:27.236Z,29.40
2022-08-17T15:24:59.007Z,29.63
2022-08-17T15:27:32.608Z,30.35
2022-08-17T15:29:59.972Z,32.37
2022-08-17T15:32:35.239Z,31.75
2022-08-17T15:35:11.651Z,31.10
2022-08-17T15:37:41.851Z,29.00
2022-08-17T15:40:13.398Z,31.17
2022-08-17T15:42:43.241Z,28.50
2022-08-17T15:45:14.159Z,30.90
2022-08-17T15:47:44.020Z,31.50
2022-08-17T15:50:13.535Z,29.07
2022-08-17T15:52:44.878Z,29.87
2022-08-17T15:55:17.214Z,31.20
2022-08-17T15:57:47.855Z,29.82
2022-08-17T16:00:17.495Z,30.67
2022-08-17T16:03:20.308Z,32.03
2022-08-17T16:05:25.304Z,32.88
2022-08-17T16:07:55.979Z,32.63
2022-08-17T16:10:34.575Z,33.92
2022-08-17T16:12:58.609Z,35.57
2022-08-17T16:15:29.813Z,34.10
2022-08-17T16:17:59.940Z,33.93
2022-08-17T16:20:30.766Z,35.33
2022-08-17T16:23:00.911Z,35.23
2022-08-17T16:25:47.218Z,35.63
2022-08-17T16:28:07.654Z,36.25
2022-08-17T16:30:38.227Z,34.40
2022-08-17T16:33:11.188Z,37.08
2022-08-17T16:35:41.902Z,35.75
2022-08-17T16:38:12.466Z,35.03
2022-08-17T16:40:42.491Z,33.70
2022-08-17T16:43:12.277Z,34.13
2022-08-17T16:45:42.221Z,34.13
2022-08-17T16:48:11.803Z,34.83
2022-08-17T16:50:42.454Z,32.83
2022-08-17T16:53:17.800Z,33.57
2022-08-17T16:55:51.930Z,36.30
2022-08-17T16:58:21.780Z,35.68
2022-08-17T17:00:51.756Z,35.57
2022-08-17T17:03:24.581Z,37.13
2022-08-17T17:06:09.074Z,36.03
2022-08-17T17:08:59.877Z,36.93
2022-08-17T17:11:33.593Z,37.93
2022-08-17T17:14:07.760Z,37.93
2022-08-17T17:16:46.566Z,38.60
2022-08-17T17:19:34.429Z,37.20
2022-08-17T17:22:07.306Z,39.27
2022-08-17T17:25:07.415Z,38.97
2022-08-17T17:27:48.754Z,37.87
2022-08-17T17:30:27.541Z,40.63
2022-08-17T17:33:06.296Z,39.70
2022-08-17T17:35:43.462Z,36.58
2022-08-17T17:38:22.024Z,39.18
2022-08-17T17:41:02.181Z,39.77
2022-08-17T17:43:38.946Z,40.27
2022-08-17T17:46:26.867Z,39.10
2022-08-17T17:48:38.093Z,40.80
2022-08-17T17:51:13.488Z,41.73
2022-08-17T17:54:08.168Z,39.05
2022-08-17T17:56:44.512Z,39.97
2022-08-17T17:59:30.036Z,36.75
2022-08-17T18:02:11.767Z,38.83
2022-08-17T18:04:47.049Z,39.33
2022-08-17T18:07:34.759Z,39.93
2022-08-17T18:10:29.533Z,38.17
2022-08-17T18:13:12.796Z,38.65
2022-08-17T18:15:51.583Z,39.57
2022-08-17T18:18:31.617Z,38.00
2022-08-17T18:21:07.179Z,40.40
2022-08-17T18:23:36.763Z,40.30
2022-08-17T18:26:08.091Z,40.73
2022-08-17T18:28:41.652Z,38.93
2022-08-17T18:31:14.467Z,42.47
2022-08-17T18:33:49.764Z,41.60
2022-08-17T18:36:28.002Z,40.53
2022-08-17T18:39:24.179Z,42.27
2022-08-17T18:41:59.035Z,42.07
2022-08-17T18:44:32.633Z,42.03
2022-08-17T18:47:17.481Z,41.40
2022-08-17T18:49:51.788Z,41.33
2022-08-17T18:52:29.414Z,39.85
2022-08-17T18:55:14.164Z,42.45
2022-08-17T18:57:52.402Z,39.93
2022-08-17T19:00:40.462Z,39.38
2022-08-17T19:03:25.378Z,38.90
2022-08-17T19:05:58.206Z,38.40
2022-08-17T19:08:33.711Z,40.80
2022-08-17T19:11:23.621Z,40.53
2022-08-17T19:14:02.212Z,37.80
2022-08-17T19:16:35.051Z,40.70
2022-08-17T19:19:28.767Z,39.77
2022-08-17T19:22:01.336Z,40.55
2022-08-17T19:24:34.423Z,41.63
2022-08-17T19:27:22.194Z,43.77
2022-08-17T19:30:08.353Z,41.77
2022-08-17T19:32:37.828Z,44.33
2022-08-17T19:35:16.688Z,44.23
2022-08-17T19:37:57.391Z,43.50
2022-08-17T19:40:54.688Z,44.88
2022-08-17T19:43:24.979Z,47.10
2022-08-17T19:46:07.052Z,47.03
2022-08-17T19:48:42.723Z,45.63
2022-08-17T19:51:42.479Z,46.70
2022-08-17T19:54:19.332Z,47.00
2022-08-17T19:56:57.823Z,49.33
2022-08-17T19:59:51.761Z,47.00
2022-08-17T20:02:30.112Z,47.30
2022-08-17T20:05:02.653Z,48.70
2022-08-17T20:07:51.755Z,47.17
2022-08-17T20:10:33.559Z,50.92
2022-08-17T20:13:07.055Z,46.45
2022-08-17T20:15:39.120Z,46.47
2022-08-17T20:18:17.225Z,46.63
2022-08-17T20:21:02.950Z,47.43
2022-08-17T20:23:55.193Z,47.73
2022-08-17T20:26:30.308Z,47.60
2022-08-17T20:29:08.704Z,50.57
2022-08-17T20:31:53.671Z,47.70
2022-08-17T20:34:30.788Z,45.50
2022-08-17T20:37:15.325Z,44.13
2022-08-17T20:39:48.354Z,45.52
2022-08-17T20:42:27.772Z,48.90
2022-08-17T20:45:19.502Z,46.00
2022-08-17T20:48:22.127Z,45.90
2022-08-17T20:50:34.458Z,49.38
2022-08-17T20:53:08.135Z,48.20
2022-08-17T20:55:51.585Z,46.50
2022-08-17T20:58:22.963Z,49.32
2022-08-17T21:01:01.469Z,49.03
2022-08-17T21:03:50.930Z,50.90
2022-08-17T21:06:17.065Z,51.05
2022-08-17T21:08:58.707Z,52.20
2022-08-17T21:11:56.766Z,48.97
2022-08-17T21:14:36.791Z,52.98
2022-08-17T21:17:31.725Z,53.10
2022-08-17T21:20:14.451Z,53.17
2022-08-17T21:23:05.232Z,55.70
2022-08-17T21:26:10.852Z,55.87
2022-08-17T21:29:31.936Z,55.00
2022-08-17T21:31:58.328Z,55.27
2022-08-17T21:34:33.313Z,56.83
2022-08-17T21:37:23.300Z,56.67
2022-08-17T21:39:59.099Z,54.17
2022-08-17T21:42:34.587Z,57.47
2022-08-17T21:45:18.842Z,55.90
2022-08-17T21:48:09.374Z,50.93
2022-08-17T21:50:41.552Z,55.83
2022-08-17T21:53:14.734Z,56.77
2022-08-17T21:55:46.292Z,58.17
2022-08-17T21:58:21.930Z,58.02
2022-08-17T22:00:54.484Z,57.13
2022-08-17T22:03:26.365Z,56.53
2022-08-17T22:05:56.156Z,58.80
2022-08-17T22:08:26.337Z,60.23
2022-08-17T22:11:03.002Z,56.90
2022-08-17T22:13:33.342Z,61.57
2022-08-17T22:16:28.154Z,58.87
2022-08-17T22:18:41.741Z,57.97
2022-08-17T22:21:11.897Z,55.60
2022-08-17T22:24:04.872Z,58.90
2022-08-17T22:27:00.174Z,62.90
2022-08-17T22:29:54.360Z,56.63
2022-08-17T22:32:40.144Z,55.63
2022-08-17T22:35:21.774Z,58.23
2022-08-17T22:37:51.820Z,56.03
2022-08-17T22:40:30.386Z,57.62
2022-08-17T22:43:03.443Z,53.80
2022-08-17T22:45:33.459Z,57.03
2022-08-17T22:48:03.677Z,56.37
2022-08-17T22:50:33.618Z,56.87
2022-08-17T22:53:23.761Z,55.20
2022-08-17T22:56:14.322Z,56.60
2022-08-17T22:59:10.597Z,55.55
2022-08-17T23:01:41.523Z,55.63
2022-08-17T23:04:36.341Z,52.72
2022-08-17T23:07:09.143Z,49.67
2022-08-17T23:09:39.309Z,52.25
2022-08-17T23:12:14.766Z,52.45
2022-08-17T23:14:46.155Z,52.95
2022-08-17T23:17:16.310Z,48.40
2022-08-17T23:19:46.160Z,52.50
2022-08-17T23:22:15.642Z,51.10
2022-08-17T23:24:50.432Z,54.93
2022-08-17T23:27:22.015Z,51.43
2022-08-17T23:29:51.797Z,48.73
2022-08-17T23:32:22.149Z,49.93
2022-08-17T23:34:52.269Z,50.40
2022-08-17T23:37:22.075Z,47.23
2022-08-17T23:39:51.947Z,50.83
2022-08-17T23:42:21.834Z,47.85
2022-08-17T23:44:51.571Z,45.93
2022-08-17T23:47:21.351Z,45.70
2022-08-17T23:49:54.206Z,43.07
2022-08-17T23:52:22.852Z,46.95
2022-08-17T23:54:52.640Z,46.07
2022-08-17T23:57:33.803Z,46.53
2022-08-17T23:59:54.582Z,42.87
